createdAt,value
2022-08-25T00:01:37.939Z,17.30
2022-08-25T00:04:13.176Z,18.40
2022-08-25T00:06:43.433Z,18.40
2022-08-25T00:09:14.322Z,18.50
2022-08-25T00:11:45.930Z,18.60
2022-08-25T00:14:15.293Z,18.50
2022-08-25T00:16:45.639Z,18.50
2022-08-25T00:19:19.606Z,18.50
2022-08-25T00:21:48.401Z,18.40
2022-08-25T00:24:20.030Z,18.40
2022-08-25T00:26:51.583Z,18.40
2022-08-25T00:29:25.544Z,18.40
2022-08-25T00:32:02.297Z,18.30
2022-08-25T00:34:35.657Z,18.30
2022-08-25T00:37:07.526Z,18.30
2022-08-25T00:39:39.194Z,18.20
2022-08-25T00:42:17.378Z,18.30
2022-08-25T00:44:49.724Z,18.20
2022-08-25T00:47:18.171Z,18.10
2022-08-25T00:49:50.838Z,18.00
2022-08-25T00:52:21.505Z,18.00
2022-08-25T00:54:52.664Z,17.90
2022-08-25T00:57:33.997Z,17.80
2022-08-25T01:00:18.706Z,17.70
2022-08-25T01:02:50.887Z,17.80
2022-08-25T01:05:22.985Z,17.80
2022-08-25T01:07:58.626Z,17.80
2022-08-25T01:10:27.979Z,18.10
2022-08-25T01:12:59.926Z,17.70
2022-08-25T01:15:30.323Z,17.20
2022-08-25T01:18:00.904Z,17.60
2022-08-25T01:20:30.681Z,17.60
2022-08-25T01:23:03.287Z,17.60
2022-08-25T01:25:40.353Z,17.50
2022-08-25T01:28:17.060Z,17.50
2022-08-25T01:30:48.551Z,17.50
2022-08-25T01:33:21.039Z,17.40
2022-08-25T01:36:03.604Z,17.30
2022-08-25T01:38:42.180Z,17.30
2022-08-25T01:41:10.596Z,17.30
2022-08-25T01:43:40.218Z,17.30
2022-08-25T01:46:14.925Z,17.20
2022-08-25T01:48:50.283Z,17.10
2022-08-25T01:51:20.813Z,17.00
2022-08-25T01:53:53.391Z,17.20
2022-08-25T01:56:23.832Z,17.10
2022-08-25T01:58:54.187Z,17.10
2022-08-25T02:01:29.907Z,17.10
2022-08-25T02:03:59.212Z,17.20
2022-08-25T02:06:29.977Z,17.10
2022-08-25T02:09:10.222Z,17.40
2022-08-25T02:11:43.672Z,17.40
2022-08-25T02:14:16.212Z,17.30
2022-08-25T02:16:46.682Z,17.40
2022-08-25T02:19:16.897Z,17.30
2022-08-25T02:21:46.322Z,17.50
2022-08-25T02:24:26.615Z,17.30
2022-08-25T02:27:12.067Z,17.20
2022-08-25T02:29:53.225Z,17.40
2022-08-25T02:32:30.353Z,17.10
2022-08-25T02:35:05.566Z,17.00
2022-08-25T02:37:36.253Z,16.90
2022-08-25T02:40:14.490Z,16.90
2022-08-25T02:42:43.051Z,16.80
2022-08-25T02:45:12.050Z,16.80
2022-08-25T02:47:42.789Z,16.70
2022-08-25T02:50:11.625Z,16.90
2022-08-25T02:55:26.761Z,16.60
2022-08-25T02:57:58.971Z,16.60
2022-08-25T03:00:27.912Z,16.50
2022-08-25T03:02:56.271Z,16.50
2022-08-25T03:05:27.657Z,16.40
2022-08-25T03:08:00.494Z,16.40
2022-08-25T03:10:33.183Z,16.40
2022-08-25T03:13:05.323Z,16.30
2022-08-25T03:15:43.905Z,16.30
2022-08-25T03:18:14.062Z,16.00
2022-08-25T03:20:43.603Z,16.20
2022-08-25T03:23:12.113Z,16.20
2022-08-25T03:26:02.839Z,16.20
2022-08-25T03:28:35.545Z,16.10
2022-08-25T03:31:16.012Z,16.10
2022-08-25T03:33:46.887Z,16.10
2022-08-25T03:36:16.939Z,15.90
2022-08-25T03:39:00.390Z,16.00
2022-08-25T03:41:46.123Z,16.00
2022-08-25T03:44:22.572Z,16.00
2022-08-25T03:46:54.981Z,16.10
2022-08-25T03:49:29.182Z,16.00
2022-08-25T03:52:08.460Z,16.00
2022-08-25T03:54:38.936Z,16.00
2022-08-25T03:57:13.463Z,16.00
2022-08-25T03:59:43.574Z,15.90
2022-08-25T04:02:16.166Z,15.90
2022-08-25T04:04:49.969Z,15.90
2022-08-25T04:07:30.434Z,15.90
2022-08-25T04:10:07.588Z,16.00
2022-08-25T04:12:40.521Z,15.90
2022-08-25T04:15:11.309Z,15.90
2022-08-25T04:17:40.483Z,15.70
2022-08-25T04:20:14.958Z,15.90
2022-08-25T04:22:54.244Z,15.90
2022-08-25T04:25:36.912Z,15.90
2022-08-25T04:28:09.529Z,15.90
2022-08-25T04:30:38.099Z,15.80
2022-08-25T04:33:09.049Z,15.80
2022-08-25T04:35:40.705Z,15.70
2022-08-25T04:38:09.546Z,15.70
2022-08-25T04:40:37.826Z,15.70
2022-08-25T04:43:13.876Z,15.70
2022-08-25T04:45:43.533Z,15.70
2022-08-25T04:48:11.864Z,15.70
2022-08-25T04:50:42.631Z,15.70
2022-08-25T04:53:11.332Z,15.70
2022-08-25T04:55:48.296Z,15.70
2022-08-25T04:58:26.256Z,15.70
2022-08-25T05:01:13.626Z,15.70
2022-08-25T05:04:05.200Z,15.60
2022-08-25T05:06:37.686Z,15.70
2022-08-25T05:09:25.703Z,15.70
2022-08-25T05:11:54.437Z,15.80
2022-08-25T05:17:24.690Z,15.80
2022-08-25T05:19:57.405Z,15.80
2022-08-25T05:22:33.702Z,15.40
2022-08-25T05:25:10.809Z,15.90
2022-08-25T05:27:43.752Z,15.40
2022-08-25T05:30:22.062Z,16.10
2022-08-25T05:33:16.552Z,16.10
2022-08-25T05:35:49.689Z,16.10
2022-08-25T05:38:36.869Z,16.20
2022-08-25T05:41:06.422Z,16.30
2022-08-25T05:43:54.742Z,16.40
2022-08-25T05:46:37.483Z,16.40
2022-08-25T05:49:19.982Z,16.60
2022-08-25T05:51:53.986Z,17.40
2022-08-25T05:54:45.851Z,17.70
2022-08-25T05:57:33.706Z,18.20
2022-08-25T06:00:19.906Z,18.90
2022-08-25T06:03:09.519Z,19.40
2022-08-25T06:06:08.600Z,19.80
2022-08-25T06:08:46.017Z,20.20
2022-08-25T06:11:32.269Z,20.60
2022-08-25T06:14:07.080Z,20.80
2022-08-25T06:16:49.132Z,21.30
2022-08-25T06:19:41.387Z,21.40
2022-08-25T06:22:26.219Z,21.70
2022-08-25T06:25:01.307Z,22.20
2022-08-25T06:27:53.147Z,22.60
2022-08-25T06:30:33.261Z,23.00
2022-08-25T06:33:24.156Z,23.70
2022-08-25T06:36:23.655Z,24.10
2022-08-25T06:39:18.537Z,24.60
2022-08-25T06:41:56.180Z,25.00
2022-08-25T06:44:27.790Z,25.40
2022-08-25T06:47:03.175Z,24.60
2022-08-25T06:49:57.810Z,25.70
2022-08-25T06:52:33.876Z,26.00
2022-08-25T06:55:46.234Z,26.20
2022-08-25T07:01:20.011Z,27.00
2022-08-25T07:03:54.921Z,27.40
2022-08-25T07:06:28.119Z,28.10
2022-08-25T07:09:03.403Z,28.40
2022-08-25T07:11:34.869Z,28.90
2022-08-25T07:14:25.577Z,29.20
2022-08-25T07:17:37.518Z,29.80
2022-08-25T07:20:10.278Z,30.00
2022-08-25T07:22:51.043Z,30.50
2022-08-25T07:25:24.305Z,30.60
2022-08-25T07:28:03.789Z,31.30
2022-08-25T07:30:41.322Z,31.30
2022-08-25T07:33:22.515Z,31.80
2022-08-25T07:35:58.641Z,32.20
2022-08-25T07:38:53.675Z,31.90
2022-08-25T07:41:29.330Z,31.80
2022-08-25T07:44:11.861Z,31.60
2022-08-25T07:49:49.720Z,31.50
2022-08-25T07:55:29.558Z,32.70
2022-08-25T07:58:08.526Z,33.80
2022-08-25T08:00:39.721Z,34.70
2022-08-25T08:03:35.322Z,35.40
2022-08-25T08:06:15.148Z,35.60
2022-08-25T08:09:00.602Z,36.00
2022-08-25T08:11:55.970Z,36.80
2022-08-25T08:14:31.003Z,37.50
2022-08-25T08:17:13.500Z,37.70
2022-08-25T08:22:58.746Z,38.20
2022-08-25T08:25:39.121Z,38.90
2022-08-25T08:28:10.957Z,39.00
2022-08-25T08:30:53.121Z,39.50
2022-08-25T08:33:26.192Z,39.90
2022-08-25T08:36:12.963Z,40.10
2022-08-25T08:38:59.316Z,40.00
2022-08-25T08:42:16.898Z,40.50
2022-08-25T08:45:05.755Z,40.50
2022-08-25T08:47:59.123Z,40.70
2022-08-25T08:50:34.338Z,40.80
2022-08-25T08:53:34.292Z,41.10
2022-08-25T08:56:16.067Z,41.30
2022-08-25T09:02:02.328Z,40.80
2022-08-25T09:04:58.680Z,41.40
2022-08-25T09:07:50.517Z,41.20
2022-08-25T09:10:34.069Z,41.30
2022-08-25T09:13:20.744Z,41.80
2022-08-25T09:16:37.128Z,41.20
2022-08-25T09:19:23.464Z,41.70
2022-08-25T09:22:00.092Z,41.70
2022-08-25T09:27:45.181Z,41.90
2022-08-25T09:30:21.011Z,41.70
2022-08-25T09:33:05.517Z,41.60
2022-08-25T09:35:57.727Z,41.20
2022-08-25T09:39:02.260Z,41.30
2022-08-25T09:41:48.250Z,41.80
2022-08-25T09:44:41.825Z,42.10
2022-08-25T09:50:23.278Z,42.00
2022-08-25T09:53:18.609Z,42.20
2022-08-25T09:56:00.504Z,42.20
2022-08-25T10:02:07.329Z,41.50
2022-08-25T10:04:53.942Z,41.70
2022-08-25T10:07:30.571Z,41.80
2022-08-25T10:10:03.755Z,42.10
2022-08-25T10:12:42.519Z,41.50
2022-08-25T10:15:29.955Z,41.70
2022-08-25T10:18:17.402Z,41.80
2022-08-25T10:21:02.221Z,41.60
2022-08-25T10:23:33.150Z,41.40
2022-08-25T10:26:06.447Z,41.30
2022-08-25T10:28:47.558Z,41.20
2022-08-25T10:31:22.192Z,41.00
2022-08-25T10:33:57.702Z,40.90
2022-08-25T10:36:36.801Z,41.30
2022-08-25T10:39:33.869Z,40.70
2022-08-25T10:42:01.587Z,41.00
2022-08-25T10:44:51.889Z,41.10
2022-08-25T10:47:49.435Z,41.20
2022-08-25T10:50:26.808Z,41.50
2022-08-25T10:53:13.550Z,41.40
2022-08-25T10:55:54.710Z,41.40
2022-08-25T10:58:26.676Z,41.30
2022-08-25T11:01:06.152Z,41.00
2022-08-25T11:03:44.800Z,41.20
2022-08-25T11:06:18.127Z,41.60
2022-08-25T11:08:55.272Z,41.50
2022-08-25T11:11:27.750Z,41.80
2022-08-25T11:13:59.306Z,41.50
2022-08-25T11:16:37.969Z,41.30
2022-08-25T11:19:10.600Z,41.40
2022-08-25T11:21:42.757Z,41.10
2022-08-25T11:24:16.418Z,41.30
2022-08-25T11:26:50.210Z,41.10
2022-08-25T11:29:21.297Z,41.10
2022-08-25T11:31:54.058Z,41.10
2022-08-25T11:34:23.217Z,41.20
2022-08-25T11:36:57.037Z,41.10
2022-08-25T11:39:36.337Z,41.20
2022-08-25T11:42:12.745Z,41.40
2022-08-25T11:44:53.637Z,41.40
2022-08-25T11:47:38.361Z,41.40
2022-08-25T11:50:09.638Z,41.30
2022-08-25T11:52:46.230Z,41.40
2022-08-25T11:55:18.199Z,41.30
2022-08-25T11:57:53.685Z,41.50
2022-08-25T12:00:37.289Z,41.40
2022-08-25T12:03:20.792Z,41.70
2022-08-25T12:05:52.309Z,41.50
2022-08-25T12:08:41.439Z,41.40
2022-08-25T12:11:40.028Z,41.50
2022-08-25T12:14:17.594Z,41.60
2022-08-25T12:17:04.192Z,41.80
2022-08-25T12:19:49.842Z,41.50
2022-08-25T12:22:37.030Z,41.40
2022-08-25T12:25:10.223Z,41.40
2022-08-25T12:27:41.757Z,41.20
2022-08-25T12:30:21.131Z,41.20
2022-08-25T12:32:59.706Z,40.80
2022-08-25T12:35:30.277Z,41.10
2022-08-25T12:38:08.043Z,41.10
2022-08-25T12:40:38.919Z,41.30
2022-08-25T12:43:24.903Z,41.30
2022-08-25T12:46:00.200Z,41.40
2022-08-25T12:48:44.666Z,41.20
2022-08-25T12:51:17.799Z,41.20
2022-08-25T12:53:51.215Z,41.40
2022-08-25T12:56:22.864Z,41.10
2022-08-25T12:59:00.142Z,41.20
2022-08-25T13:01:38.202Z,41.40
2022-08-25T13:04:16.456Z,41.50
2022-08-25T13:07:02.389Z,41.50
2022-08-25T13:09:49.789Z,41.70
2022-08-25T13:12:27.453Z,41.80
2022-08-25T13:15:00.262Z,41.60
2022-08-25T13:17:35.522Z,41.90
2022-08-25T13:20:14.387Z,42.10
2022-08-25T13:22:46.771Z,41.90
2022-08-25T13:25:27.140Z,41.70
2022-08-25T13:28:05.240Z,41.70
2022-08-25T13:30:35.062Z,41.40
2022-08-25T13:33:22.402Z,41.60
2022-08-25T13:36:14.620Z,41.60
2022-08-25T13:38:48.170Z,41.80
2022-08-25T13:41:28.764Z,41.90
2022-08-25T13:44:02.777Z,41.80
2022-08-25T13:46:37.924Z,41.60
2022-08-25T13:49:09.831Z,41.30
2022-08-25T13:51:47.069Z,41.30
2022-08-25T13:54:26.393Z,41.30
2022-08-25T13:56:55.330Z,41.20
2022-08-25T13:59:27.201Z,41.20
2022-08-25T14:02:00.289Z,41.10
2022-08-25T14:04:34.116Z,41.00
2022-08-25T14:07:15.106Z,41.00
2022-08-25T14:09:52.218Z,41.00
2022-08-25T14:12:37.142Z,41.20
2022-08-25T14:15:10.454Z,40.70
2022-08-25T14:17:42.343Z,40.60
2022-08-25T14:20:20.627Z,40.50
2022-08-25T14:22:56.517Z,40.40
2022-08-25T14:25:30.688Z,40.60
2022-08-25T14:28:08.372Z,40.70
2022-08-25T14:30:39.691Z,40.60
2022-08-25T14:33:15.831Z,40.50
2022-08-25T14:35:47.428Z,40.30
2022-08-25T14:38:18.014Z,40.30
2022-08-25T14:40:46.854Z,40.10
2022-08-25T14:43:17.707Z,40.20
2022-08-25T14:45:50.571Z,40.00
2022-08-25T14:48:24.544Z,39.60
2022-08-25T14:50:55.154Z,39.30
2022-08-25T14:53:25.172Z,38.80
2022-08-25T14:55:54.090Z,37.90
2022-08-25T14:58:33.919Z,37.20
2022-08-25T15:01:05.950Z,36.70
2022-08-25T15:03:38.081Z,36.00
2022-08-25T15:06:07.369Z,35.50
2022-08-25T15:08:58.848Z,35.10
2022-08-25T15:11:27.928Z,34.80
2022-08-25T15:14:03.905Z,34.40
2022-08-25T15:16:35.396Z,34.10
2022-08-25T15:19:06.744Z,33.70
2022-08-25T15:21:36.130Z,33.40
2022-08-25T15:24:07.137Z,33.30
2022-08-25T15:26:37.092Z,33.10
2022-08-25T15:29:11.884Z,33.00
2022-08-25T15:31:40.854Z,32.90
2022-08-25T15:34:13.085Z,32.70
2022-08-25T15:36:41.931Z,32.60
2022-08-25T15:39:18.903Z,32.50
2022-08-25T15:41:51.259Z,32.30
2022-08-25T15:44:20.057Z,32.10
2022-08-25T15:46:50.533Z,31.80
2022-08-25T15:49:20.901Z,31.90
2022-08-25T15:51:52.627Z,31.80
2022-08-25T15:54:22.698Z,31.70
2022-08-25T15:56:51.069Z,31.60
2022-08-25T15:59:21.805Z,31.50
2022-08-25T16:01:53.823Z,31.50
2022-08-25T16:04:22.685Z,31.50
2022-08-25T16:07:00.399Z,31.40
2022-08-25T16:09:33.279Z,31.30
2022-08-25T16:12:06.620Z,31.50
2022-08-25T16:14:35.286Z,31.20
2022-08-25T16:17:03.957Z,31.10
2022-08-25T16:19:33.341Z,31.10
2022-08-25T16:22:04.260Z,31.00
2022-08-25T16:24:39.473Z,30.80
2022-08-25T16:27:11.367Z,30.80
2022-08-25T16:29:40.881Z,30.70
2022-08-25T16:32:10.371Z,30.70
2022-08-25T16:34:39.377Z,30.70
2022-08-25T16:37:08.597Z,31.00
2022-08-25T16:39:44.243Z,30.60
2022-08-25T16:42:12.785Z,30.50
2022-08-25T16:44:41.263Z,30.40
2022-08-25T16:47:09.514Z,30.30
2022-08-25T16:49:41.226Z,30.20
2022-08-25T16:52:30.471Z,30.20
2022-08-25T16:55:16.191Z,30.10
2022-08-25T16:57:47.676Z,30.00
2022-08-25T17:00:20.519Z,29.90
2022-08-25T17:02:51.752Z,29.80
2022-08-25T17:05:20.101Z,29.80
2022-08-25T17:08:09.064Z,29.60
2022-08-25T17:10:42.091Z,29.30
2022-08-25T17:13:10.745Z,29.30
2022-08-25T17:15:40.646Z,29.20
2022-08-25T17:18:09.149Z,29.10
2022-08-25T17:20:39.787Z,29.00
2022-08-25T17:23:11.976Z,29.00
2022-08-25T17:25:43.483Z,28.80
2022-08-25T17:28:12.801Z,28.80
2022-08-25T17:30:41.711Z,28.70
2022-08-25T17:33:10.226Z,28.60
2022-08-25T17:35:40.054Z,28.50
2022-08-25T17:38:08.867Z,28.40
2022-08-25T17:40:39.924Z,28.30
2022-08-25T17:43:11.117Z,28.20
2022-08-25T17:45:39.953Z,28.20
2022-08-25T17:48:09.181Z,28.00
2022-08-25T17:50:39.358Z,27.90
2022-08-25T17:53:09.267Z,27.90
2022-08-25T17:55:38.382Z,27.50
2022-08-25T17:58:09.524Z,27.60
2022-08-25T18:00:48.956Z,27.50
2022-08-25T18:03:17.770Z,27.40
2022-08-25T18:05:46.836Z,27.30
2022-08-25T18:08:17.312Z,27.20
2022-08-25T18:10:50.673Z,27.00
2022-08-25T18:13:19.647Z,26.90
2022-08-25T18:15:51.669Z,26.80
2022-08-25T18:18:24.289Z,26.70
2022-08-25T18:20:53.133Z,26.50
2022-08-25T18:23:24.570Z,26.40
2022-08-25T18:26:00.804Z,26.20
2022-08-25T18:28:29.763Z,25.90
2022-08-25T18:30:59.620Z,25.80
2022-08-25T18:33:30.118Z,25.60
2022-08-25T18:36:00.600Z,25.40
2022-08-25T18:38:46.275Z,25.20
2022-08-25T18:41:14.661Z,25.10
2022-08-25T18:43:42.986Z,24.90
2022-08-25T18:46:13.091Z,24.80
2022-08-25T18:48:42.981Z,24.60
2022-08-25T18:51:14.898Z,24.50
2022-08-25T18:53:50.340Z,24.40
2022-08-25T18:56:24.038Z,23.30
2022-08-25T18:58:55.108Z,24.00
2022-08-25T19:01:24.985Z,23.90
2022-08-25T19:03:53.536Z,23.80
2022-08-25T19:06:22.143Z,23.70
2022-08-25T19:08:50.170Z,24.30
2022-08-25T19:11:22.296Z,23.60
2022-08-25T19:13:51.229Z,23.40
2022-08-25T19:16:31.896Z,23.30
2022-08-25T19:19:03.994Z,23.20
2022-08-25T19:21:37.507Z,23.10
2022-08-25T19:24:05.962Z,23.00
2022-08-25T19:26:35.414Z,22.90
2022-08-25T19:29:04.304Z,22.90
2022-08-25T19:31:33.370Z,22.80
2022-08-25T19:34:01.898Z,22.70
2022-08-25T19:36:31.766Z,22.70
2022-08-25T19:39:01.652Z,22.60
2022-08-25T19:41:31.483Z,22.60
2022-08-25T19:44:00.489Z,22.60
2022-08-25T19:46:33.409Z,22.40
2022-08-25T19:49:08.827Z,22.40
2022-08-25T19:51:40.203Z,22.40
2022-08-25T19:54:12.252Z,22.30
2022-08-25T19:56:54.987Z,22.30
2022-08-25T19:59:24.871Z,22.20
2022-08-25T20:01:53.236Z,22.20
2022-08-25T20:04:24.535Z,22.20
2022-08-25T20:06:55.292Z,22.20
2022-08-25T20:09:38.823Z,22.20
2022-08-25T20:15:02.769Z,22.10
2022-08-25T20:17:34.898Z,22.10
2022-08-25T20:20:08.307Z,22.10
2022-08-25T20:22:38.481Z,22.00
2022-08-25T20:25:13.485Z,22.10
2022-08-25T20:27:43.354Z,22.00
2022-08-25T20:30:23.346Z,22.00
2022-08-25T20:32:51.807Z,22.30
2022-08-25T20:35:20.470Z,22.00
2022-08-25T20:38:04.877Z,22.10
2022-08-25T20:40:33.463Z,22.00
2022-08-25T20:43:03.393Z,22.00
2022-08-25T20:45:31.916Z,21.90
2022-08-25T20:48:03.434Z,21.90
2022-08-25T20:50:38.008Z,22.10
2022-08-25T20:53:13.898Z,22.00
2022-08-25T20:55:44.628Z,22.00
2022-08-25T20:58:14.258Z,22.10
2022-08-25T21:00:42.788Z,22.20
2022-08-25T21:03:15.611Z,22.30
2022-08-25T21:05:44.589Z,22.20
2022-08-25T21:08:25.488Z,22.40
2022-08-25T21:10:53.968Z,22.50
2022-08-25T21:13:24.521Z,22.30
2022-08-25T21:15:56.374Z,21.60
2022-08-25T21:18:27.602Z,22.30
2022-08-25T21:21:11.067Z,22.20
2022-08-25T21:23:48.897Z,22.10
2022-08-25T21:26:22.155Z,22.10
2022-08-25T21:28:57.396Z,22.00
2022-08-25T21:31:28.699Z,21.90
2022-08-25T21:34:03.635Z,21.80
2022-08-25T21:36:32.418Z,21.70
2022-08-25T21:39:05.665Z,21.60
2022-08-25T21:41:35.020Z,21.60
2022-08-25T21:44:05.620Z,21.70
2022-08-25T21:46:54.231Z,21.70
2022-08-25T21:49:25.459Z,21.50
2022-08-25T21:52:00.472Z,21.40
2022-08-25T21:54:32.777Z,21.50
2022-08-25T21:57:04.741Z,21.50
2022-08-25T21:59:37.837Z,21.60
2022-08-25T22:02:13.207Z,21.40
2022-08-25T22:04:45.893Z,21.40
2022-08-25T22:07:14.862Z,21.30
2022-08-25T22:09:45.899Z,21.20
2022-08-25T22:12:14.181Z,21.20
2022-08-25T22:14:51.717Z,21.10
2022-08-25T22:17:24.124Z,21.20
2022-08-25T22:19:55.862Z,21.20
2022-08-25T22:22:26.059Z,21.10
2022-08-25T22:24:59.607Z,21.10
2022-08-25T22:27:30.753Z,21.10
2022-08-25T22:30:02.006Z,21.20
2022-08-25T22:32:33.088Z,21.10
2022-08-25T22:35:01.693Z,21.30
2022-08-25T22:37:39.032Z,21.40
2022-08-25T22:40:14.244Z,20.90
2022-08-25T22:42:47.392Z,21.50
2022-08-25T22:45:17.731Z,21.50
2022-08-25T22:47:49.053Z,21.60
2022-08-25T22:50:18.134Z,20.60
2022-08-25T22:52:51.984Z,21.60
2022-08-25T22:55:28.100Z,21.60
2022-08-25T22:57:59.668Z,21.80
2022-08-25T23:00:29.263Z,21.50
2022-08-25T23:02:57.976Z,21.40
2022-08-25T23:05:31.104Z,21.30
2022-08-25T23:08:03.418Z,21.30
2022-08-25T23:10:35.307Z,21.30
2022-08-25T23:13:03.860Z,21.10
2022-08-25T23:15:37.492Z,20.80
2022-08-25T23:18:15.176Z,21.00
2022-08-25T23:21:05.564Z,21.00
2022-08-25T23:23:36.517Z,20.90
2022-08-25T23:26:08.067Z,20.80
2022-08-25T23:28:36.534Z,20.80
2022-08-25T23:31:06.837Z,20.80
2022-08-25T23:33:40.207Z,20.80
2022-08-25T23:36:15.644Z,20.80
2022-08-25T23:38:51.497Z,20.90
2022-08-25T23:41:22.864Z,20.90
2022-08-25T23:43:52.824Z,20.90
2022-08-25T23:46:25.393Z,20.90
2022-08-25T23:48:57.017Z,21.00
2022-08-25T23:51:31.152Z,21.00
2022-08-25T23:54:03.869Z,20.90
2022-08-25T23:56:33.897Z,20.90
2022-08-25T23:59:03.657Z,20.90
